Time;durP1;ratioP1;P1;durP2;ratioP2;P2;SDS_P1;SDS_P2;PMS_P1;PMS_P2;Temp;Humidity;BMP_temperature;BMP_pressure;BME280_temperature;BME280_humidity;BME280_pressure;Samples;Min_cycle;Max_cycle;Signal;HPM_P1;HPM_P2
2022/11/05 00:16:57;;;;;;;3.70;3.37;;;8.00;99.90;;;;;;8412622;28;20559;-67
2022/11/05 00:20:57;;;;;;;3.27;2.97;;;8.00;99.90;;;;;;8413261;28;20181;-69
2022/11/05 00:25:13;;;;;;;3.60;3.30;;;8.00;99.90;;;;;;8396274;28;20415;-69
2022/11/05 00:29:14;;;;;;;3.43;2.90;;;8.00;99.90;;;;;;8394873;28;20189;-66
2022/11/05 00:33:15;;;;;;;3.30;3.00;;;8.10;99.90;;;;;;8412730;28;20316;-68
2022/11/05 00:37:16;;;;;;;3.60;3.30;;;8.10;99.90;;;;;;8392144;28;20203;-68
2022/11/05 00:41:17;;;;;;;4.33;2.80;;;8.10;99.90;;;;;;8393385;28;20173;-68
2022/11/05 00:45:18;;;;;;;2.83;2.60;;;8.10;99.90;;;;;;8393528;28;20185;-67
2022/11/05 00:49:31;;;;;;;2.40;2.20;;;8.10;99.90;;;;;;8393907;28;20199;-68
2022/11/05 00:53:32;;;;;;;2.50;2.30;;;8.10;99.90;;;;;;8393897;28;20196;-67
2022/11/05 00:57:32;;;;;;;2.30;2.10;;;8.10;99.90;;;;;;8411873;28;20320;-68
2022/11/05 01:01:33;;;;;;;2.00;1.80;;;8.10;99.90;;;;;;8393810;28;20333;-70
2022/11/05 01:05:41;;;;;;;2.90;2.00;;;8.10;99.90;;;;;;8398157;28;20468;-70
2022/11/05 01:09:41;;;;;;;2.37;2.17;;;8.10;99.90;;;;;;8418922;28;20189;-68
2022/11/05 01:13:42;;;;;;;2.70;1.87;;;8.10;99.90;;;;;;8399115;28;20188;-69
2022/11/05 01:17:43;;;;;;;2.13;1.93;;;8.10;99.90;;;;;;8394299;28;20212;-68
2022/11/05 01:21:44;;;;;;;2.10;1.90;;;8.10;99.90;;;;;;8415888;28;20195;-69
2022/11/05 01:25:44;;;;;;;2.10;1.90;;;8.10;99.90;;;;;;8418180;28;20496;-70
2022/11/05 01:29:45;;;;;;;3.00;1.90;;;8.10;99.90;;;;;;8399550;28;20203;-69
2022/11/05 01:33:46;;;;;;;2.80;2.17;;;8.10;99.90;;;;;;8399720;28;20266;-68
2022/11/05 01:37:47;;;;;;;1.67;1.53;;;8.10;99.90;;;;;;8415602;28;20215;-71
2022/11/05 01:41:47;;;;;;;2.20;2.00;;;8.10;99.90;;;;;;8401566;28;20490;-69
2022/11/05 01:45:56;;;;;;;2.27;1.77;;;8.10;99.90;;;;;;8416689;28;20180;-69
2022/11/05 01:50:00;;;;;;;2.07;1.80;;;8.10;99.90;;;;;;8413532;28;20207;-70
2022/11/05 01:54:06;;;;;;;4.00;2.00;;;8.10;99.90;;;;;;8417080;28;20286;-69
2022/11/05 01:58:11;;;;;;;2.70;2.20;;;8.10;99.90;;;;;;8413975;28;20331;-69
2022/11/05 02:02:12;;;;;;;2.30;2.10;;;8.00;99.90;;;;;;8416760;28;20211;-68
2022/11/05 02:06:16;;;;;;;2.17;1.97;;;8.00;99.90;;;;;;8417952;28;20192;-70
2022/11/05 02:10:17;;;;;;;2.37;2.10;;;8.00;99.90;;;;;;8401753;28;20189;-68
2022/11/05 02:14:19;;;;;;;2.10;1.90;;;8.00;99.90;;;;;;8399139;28;20193;-70
2022/11/05 02:18:26;;;;;;;1.93;1.57;;;8.00;99.90;;;;;;8397988;28;20248;-69
2022/11/05 02:22:33;;;;;;;1.87;1.67;;;8.00;99.90;;;;;;8397301;28;20188;-70
2022/11/05 02:27:02;;;;;;;2.83;2.07;;;8.00;99.90;;;;;;8397388;28;20180;-70
2022/11/05 02:31:10;;;;;;;2.33;2.13;;;8.00;99.90;;;;;;8397782;28;20359;-71
2022/11/05 02:35:10;;;;;;;3.00;2.73;;;8.00;99.90;;;;;;8405948;28;20196;-69
2022/11/05 02:39:34;;;;;;;3.37;2.47;;;8.00;99.90;;;;;;8398268;28;20246;-69
2022/11/05 02:43:49;;;;;;;2.30;2.10;;;8.00;99.90;;;;;;8405721;28;20206;-70
2022/11/05 02:48:06;;;;;;;2.57;2.37;;;8.00;99.90;;;;;;8411495;28;20195;-69
2022/11/05 02:52:30;;;;;;;3.10;2.60;;;7.90;99.90;;;;;;8414491;28;20188;-70
2022/11/05 02:56:40;;;;;;;2.87;2.30;;;7.90;99.90;;;;;;8413462;28;20219;-70
2022/11/05 03:00:46;;;;;;;3.23;2.60;;;7.90;99.90;;;;;;8395580;28;20188;-71
2022/11/05 03:04:47;;;;;;;2.80;2.47;;;7.90;99.90;;;;;;8395199;28;20315;-69
2022/11/05 03:09:14;;;;;;;2.80;2.53;;;7.90;99.90;;;;;;8397652;28;20210;-70
2022/11/05 03:13:47;;;;;;;2.47;2.27;;;7.90;99.90;;;;;;8414930;28;20195;-70
2022/11/05 03:18:12;;;;;;;2.23;2.03;;;7.90;99.90;;;;;;8340006;28;20212;-71
2022/11/05 03:22:22;;;;;;;3.67;2.10;;;7.90;99.90;;;;;;8413928;28;20181;-70
2022/11/05 03:26:51;;;;;;;2.60;2.40;;;7.90;99.90;;;;;;8414352;28;20275;-71
2022/11/05 03:30:54;;;;;;;3.33;2.47;;;7.90;99.90;;;;;;8396356;28;20199;-71
2022/11/05 03:35:07;;;;;;;2.77;2.57;;;7.90;99.90;;;;;;8395810;28;20189;-71
2022/11/05 03:39:16;;;;;;;3.10;2.80;;;7.80;99.90;;;;;;8395579;28;20211;-71
2022/11/05 03:43:19;;;;;;;2.40;2.20;;;7.80;99.90;;;;;;8396280;28;20466;-69
2022/11/05 03:47:24;;;;;;;2.90;2.50;;;7.80;99.90;;;;;;8414161;28;20296;-70
2022/11/05 03:52:04;;;;;;;2.27;2.07;;;7.80;99.90;;;;;;8396244;28;20196;-70
2022/11/05 03:56:34;;;;;;;2.10;1.90;;;7.80;99.90;;;;;;8410819;28;20184;-71
2022/11/05 04:00:35;;;;;;;2.40;2.20;;;7.90;99.90;;;;;;8382904;28;20210;-71
2022/11/05 04:04:36;;;;;;;2.13;1.93;;;7.90;99.90;;;;;;8395939;28;20196;-70
2022/11/05 04:17:16;;;;;;;3.10;1.73;;;7.90;99.90;;;;;;8415747;28;20677;-70
2022/11/05 04:25:37;;;;;;;1.70;1.40;;;7.90;99.90;;;;;;8416013;28;20329;-71
2022/11/05 04:33:56;;;;;;;4.00;1.57;;;7.90;99.90;;;;;;8417262;28;20192;-70
2022/11/05 04:37:57;;;;;;;1.73;1.60;;;7.90;99.90;;;;;;8415570;28;20212;-70
2022/11/05 04:41:58;;;;;;;2.00;1.80;;;7.90;99.90;;;;;;8422332;28;20188;-72
2022/11/05 04:45:59;;;;;;;2.23;1.93;;;7.90;99.90;;;;;;8423133;28;20176;-72
2022/11/05 04:49:59;;;;;;;2.80;2.13;;;7.90;99.90;;;;;;8421871;28;20172;-71
2022/11/05 04:54:00;;;;;;;3.57;3.27;;;7.90;99.90;;;;;;8404357;28;20215;-70
2022/11/05 04:58:01;;;;;;;3.73;3.33;;;7.90;99.90;;;;;;8403223;28;20306;-71
2022/11/05 05:02:02;;;;;;;4.83;3.87;;;7.90;99.90;;;;;;8397591;28;20196;-71
2022/11/05 05:06:02;;;;;;;6.73;4.23;;;7.90;99.90;;;;;;8422811;28;20206;-70
2022/11/05 05:10:05;;;;;;;5.73;5.10;;;8.00;99.90;;;;;;8395868;28;20181;-70
2022/11/05 05:14:07;;;;;;;5.53;4.87;;;8.00;99.90;;;;;;8402558;28;20239;-71
2022/11/05 05:18:08;;;;;;;6.57;5.50;;;8.00;99.90;;;;;;8423231;28;20215;-72
2022/11/05 05:22:09;;;;;;;6.57;5.43;;;8.00;99.90;;;;;;8402803;28;20211;-73
2022/11/05 05:26:10;;;;;;;6.60;5.97;;;8.10;99.90;;;;;;8421881;28;20191;-71
2022/11/05 05:30:12;;;;;;;6.63;5.93;;;8.10;99.90;;;;;;8401617;28;20188;-71
2022/11/05 05:34:13;;;;;;;7.47;5.83;;;8.10;99.90;;;;;;8404043;28;20242;-72
2022/11/05 05:38:14;;;;;;;7.83;5.83;;;8.10;99.90;;;;;;8404546;28;20299;-71
2022/11/05 05:42:15;;;;;;;6.77;5.93;;;8.10;99.90;;;;;;8404447;28;20188;-72
2022/11/05 05:46:17;;;;;;;8.60;5.70;;;8.10;99.90;;;;;;8402703;28;20181;-72
2022/11/05 05:50:18;;;;;;;7.37;5.83;;;8.20;99.90;;;;;;8401749;28;20526;-69
2022/11/05 05:54:18;;;;;;;7.20;5.87;;;8.20;99.90;;;;;;8421899;28;20184;-72
2022/11/05 05:58:20;;;;;;;7.73;6.93;;;8.20;99.90;;;;;;8400941;28;20200;-70
2022/11/05 06:02:21;;;;;;;7.93;6.53;;;8.20;99.90;;;;;;8417572;28;20239;-72
2022/11/05 06:06:22;;;;;;;6.70;6.00;;;8.20;99.90;;;;;;8419652;28;20204;-71
2022/11/05 06:10:24;;;;;;;7.53;6.07;;;8.20;99.90;;;;;;8419527;28;20222;-71
2022/11/05 06:14:24;;;;;;;7.70;6.43;;;8.20;99.90;;;;;;8420248;28;20204;-71
2022/11/05 06:18:25;;;;;;;7.00;6.30;;;8.30;99.90;;;;;;8400136;28;20208;-70
2022/11/05 06:22:26;;;;;;;7.87;6.50;;;8.30;99.90;;;;;;8403235;28;20183;-71
2022/11/05 06:26:27;;;;;;;6.97;6.27;;;8.30;99.90;;;;;;8415700;28;20176;-70
2022/11/05 06:30:28;;;;;;;7.30;6.07;;;8.30;99.90;;;;;;8398495;28;20337;-71
2022/11/05 06:34:29;;;;;;;6.80;6.10;;;8.40;99.90;;;;;;8401404;28;20189;-70
2022/11/05 06:38:35;;;;;;;7.37;6.30;;;8.40;99.90;;;;;;8401318;28;20257;-72
2022/11/05 06:42:35;;;;;;;7.03;5.80;;;8.40;99.90;;;;;;8399166;28;20177;-70
2022/11/05 06:46:36;;;;;;;6.60;5.60;;;8.40;99.90;;;;;;8418287;28;20210;-71
2022/11/05 06:50:37;;;;;;;9.03;6.67;;;8.40;99.90;;;;;;8417814;28;20208;-70
2022/11/05 06:54:38;;;;;;;7.43;6.53;;;8.50;99.90;;;;;;8418924;28;20372;-71
2022/11/05 06:58:39;;;;;;;7.00;6.23;;;8.50;99.90;;;;;;8399298;28;20220;-70
2022/11/05 07:02:40;;;;;;;8.40;6.43;;;8.50;99.90;;;;;;8392255;28;20227;-71
2022/11/05 07:06:41;;;;;;;9.47;6.60;;;8.50;99.90;;;;;;8397671;28;20188;-71
2022/11/05 07:10:42;;;;;;;8.20;7.30;;;8.60;99.90;;;;;;8417292;28;20195;-71
2022/11/05 07:14:43;;;;;;;7.80;6.17;;;8.60;99.90;;;;;;8412351;28;20188;-71
2022/11/05 07:18:43;;;;;;;6.80;6.03;;;8.70;99.90;;;;;;8417231;28;20204;-71
2022/11/05 07:22:44;;;;;;;8.23;6.60;;;8.70;99.90;;;;;;8397233;28;20180;-71
2022/11/05 07:26:45;;;;;;;7.07;6.17;;;8.70;99.90;;;;;;8414189;28;20176;-70
2022/11/05 07:30:47;;;;;;;9.27;5.73;;;8.80;99.90;;;;;;8398542;28;20187;-70
2022/11/05 07:34:47;;;;;;;7.33;5.50;;;8.90;99.90;;;;;;8398393;28;20559;-70
2022/11/05 07:38:48;;;;;;;6.53;5.07;;;9.00;99.90;;;;;;8397865;28;20211;-71
2022/11/05 07:42:57;;;;;;;8.33;5.40;;;9.00;99.90;;;;;;8416114;28;20180;-71
2022/11/05 07:46:58;;;;;;;6.57;4.50;;;9.00;99.90;;;;;;8416356;28;20204;-69
2022/11/05 07:50:58;;;;;;;8.60;4.80;;;9.00;99.90;;;;;;8417754;28;20738;-70
2022/11/05 07:54:59;;;;;;;7.37;5.03;;;9.00;99.90;;;;;;8399021;28;20215;-70
2022/11/05 07:59:00;;;;;;;5.57;4.53;;;9.00;99.90;;;;;;8398659;28;20223;-70
2022/11/05 08:03:02;;;;;;;7.20;4.67;;;9.00;99.90;;;;;;8417366;28;20226;-71
2022/11/05 08:07:03;;;;;;;6.27;5.47;;;9.00;99.90;;;;;;8397139;28;20195;-70
2022/11/05 08:11:05;;;;;;;10.60;5.23;;;9.00;99.90;;;;;;8397679;28;20180;-71
2022/11/05 08:15:07;;;;;;;9.60;5.33;;;9.10;99.90;;;;;;8414233;28;20184;-70
2022/11/05 08:19:07;;;;;;;10.40;5.30;;;9.20;99.90;;;;;;8398502;28;20801;-71
2022/11/05 08:23:09;;;;;;;8.83;5.57;;;9.20;99.90;;;;;;8398566;28;20225;-71
2022/11/05 08:27:09;;;;;;;8.37;5.00;;;9.30;99.90;;;;;;8398611;28;20184;-71
2022/11/05 08:31:10;;;;;;;6.70;4.97;;;9.20;99.90;;;;;;8399044;28;20191;-69
2022/11/05 08:35:11;;;;;;;10.47;5.37;;;9.20;99.90;;;;;;8398745;28;20191;-70
2022/11/05 08:39:12;;;;;;;6.10;4.07;;;9.10;99.90;;;;;;8396886;28;20208;-71
2022/11/05 08:43:14;;;;;;;6.73;4.60;;;9.10;99.90;;;;;;8413207;28;20242;-69
2022/11/05 08:47:15;;;;;;;6.67;4.90;;;9.00;99.90;;;;;;8397957;28;20192;-70
2022/11/05 08:51:16;;;;;;;6.67;4.20;;;9.00;99.90;;;;;;8413985;28;20237;-71
2022/11/05 08:55:17;;;;;;;5.53;3.37;;;9.00;99.90;;;;;;8397496;28;20194;-69
2022/11/05 08:59:18;;;;;;;5.57;3.20;;;9.20;99.90;;;;;;8397578;28;20291;-70
2022/11/05 09:03:19;;;;;;;7.90;3.10;;;9.30;99.90;;;;;;8416291;28;20231;-72
2022/11/05 09:07:21;;;;;;;5.03;2.83;;;9.30;99.90;;;;;;8414791;28;20184;-70
2022/11/05 09:11:22;;;;;;;6.33;3.10;;;9.40;99.90;;;;;;8397670;28;20181;-71
2022/11/05 09:15:23;;;;;;;3.07;2.50;;;9.50;99.90;;;;;;8396944;28;20211;-71
2022/11/05 09:19:24;;;;;;;5.07;2.77;;;9.60;99.90;;;;;;8396942;28;20205;-71
2022/11/05 09:23:25;;;;;;;6.20;3.20;;;9.70;99.90;;;;;;8397270;28;20188;-71
2022/11/05 09:27:26;;;;;;;6.33;3.20;;;9.60;99.90;;;;;;8416877;28;20273;-71
2022/11/05 09:31:27;;;;;;;8.47;3.63;;;9.60;99.90;;;;;;8404449;28;20188;-72
2022/11/05 09:35:28;;;;;;;5.17;3.40;;;9.60;99.90;;;;;;8421686;28;20181;-70
2022/11/05 09:39:29;;;;;;;8.73;4.27;;;9.80;99.90;;;;;;8402933;28;20295;-71
2022/11/05 09:43:42;;;;;;;6.10;3.97;;;10.00;99.90;;;;;;8403197;28;20205;-71
2022/11/05 09:47:51;;;;;;;7.20;3.80;;;10.30;99.90;;;;;;8400383;28;20186;-71
2022/11/05 09:51:54;;;;;;;9.97;3.67;;;10.40;99.90;;;;;;8401926;28;20277;-71
2022/11/05 09:55:58;;;;;;;4.80;3.30;;;10.50;99.90;;;;;;8401896;28;20207;-71
2022/11/05 10:00:03;;;;;;;5.17;3.40;;;10.60;99.90;;;;;;8395355;28;20254;-71
2022/11/05 10:04:12;;;;;;;7.57;3.20;;;10.50;99.90;;;;;;8401917;28;20196;-69
2022/11/05 10:08:41;;;;;;;9.10;3.70;;;10.40;99.90;;;;;;8418548;28;20193;-70
2022/11/05 10:12:55;;;;;;;8.50;3.23;;;10.40;99.90;;;;;;8395986;28;20256;-70
2022/11/05 10:17:12;;;;;;;7.73;3.17;;;10.40;99.90;;;;;;8402210;28;20209;-71
2022/11/05 10:21:18;;;;;;;10.23;3.27;;;10.30;99.90;;;;;;8409905;28;20175;-70
2022/11/05 10:25:20;;;;;;;9.57;3.53;;;10.50;99.90;;;;;;8399864;28;20214;-71
2022/11/05 10:29:31;;;;;;;9.17;3.00;;;10.50;99.90;;;;;;8400606;28;20191;-69
2022/11/05 10:33:38;;;;;;;6.20;2.70;;;10.50;99.90;;;;;;8417181;28;20175;-71
2022/11/05 10:37:40;;;;;;;6.70;3.13;;;10.60;99.90;;;;;;8392674;28;20213;-71
2022/11/05 10:42:01;;;;;;;9.53;3.60;;;10.60;99.90;;;;;;8418338;28;20224;-70
2022/11/05 10:46:27;;;;;;;9.10;3.60;;;10.50;99.90;;;;;;8418189;28;20208;-71
2022/11/05 10:50:29;;;;;;;5.93;3.03;;;10.40;99.90;;;;;;8417769;28;20183;-71
2022/11/05 10:54:34;;;;;;;11.47;3.43;;;10.50;99.90;;;;;;8417569;28;20178;-71
2022/11/05 10:58:36;;;;;;;12.13;4.03;;;10.40;99.90;;;;;;8399363;28;20270;-72
2022/11/05 11:02:36;;;;;;;6.90;2.77;;;10.50;99.90;;;;;;8419568;28;20207;-70
2022/11/05 11:06:46;;;;;;;10.80;3.57;;;10.50;99.90;;;;;;8400936;28;20183;-74
2022/11/05 11:10:53;;;;;;;8.73;4.00;;;10.60;99.90;;;;;;8417698;28;20198;-70
2022/11/05 11:15:04;;;;;;;10.80;3.17;;;10.70;99.90;;;;;;8400340;28;20207;-71
2022/11/05 11:19:31;;;;;;;8.27;3.10;;;10.90;99.90;;;;;;8414061;28;20302;-70
2022/11/05 11:23:37;;;;;;;6.63;2.67;;;11.30;99.90;;;;;;8417590;28;20190;-70
2022/11/05 11:27:38;;;;;;;8.17;3.20;;;11.40;99.90;;;;;;8399590;28;20202;-70
2022/11/05 11:31:40;;;;;;;10.23;3.47;;;11.10;99.90;;;;;;8416550;28;20244;-70
2022/11/05 11:35:45;;;;;;;8.73;3.10;;;11.00;99.90;;;;;;8397082;28;20186;-71
2022/11/05 11:39:50;;;;;;;10.07;3.30;;;11.10;99.90;;;;;;8414072;28;20246;-71
2022/11/05 11:44:00;;;;;;;8.93;3.30;;;11.70;99.90;;;;;;8394030;28;20208;-71
2022/11/05 11:48:04;;;;;;;7.03;2.67;;;11.90;99.90;;;;;;8411703;28;20177;-70
2022/11/05 11:52:12;;;;;;;7.47;2.90;;;11.80;1.00;;;;;;8398137;28;20257;-71
2022/11/05 11:56:22;;;;;;;9.43;3.27;;;11.60;1.00;;;;;;8416050;28;20241;-71
2022/11/05 12:00:25;;;;;;;7.80;2.93;;;11.50;1.00;;;;;;8395272;28;20319;-71
2022/11/05 12:05:00;;;;;;;7.17;2.27;;;11.30;99.90;;;;;;8415336;28;20222;-70
2022/11/05 12:09:33;;;;;;;9.70;3.13;;;11.10;99.90;;;;;;8396544;28;20192;-70
2022/11/05 12:14:02;;;;;;;6.20;2.30;;;11.10;1.00;;;;;;8402784;28;20206;-71
2022/11/05 12:18:37;;;;;;;9.80;3.57;;;11.50;99.90;;;;;;8415270;28;20214;-71
2022/11/05 12:23:02;;;;;;;5.20;2.80;;;11.60;99.90;;;;;;8383172;28;20191;-71
2022/11/05 12:27:19;;;;;;;5.83;2.27;;;11.60;1.00;;;;;;8413645;28;20320;-70
2022/11/05 12:31:43;;;;;;;9.87;2.60;;;11.70;1.00;;;;;;8397623;28;20180;-70
2022/11/05 12:36:07;;;;;;;9.57;2.97;;;11.70;99.90;;;;;;8394962;28;20173;-69
2022/11/05 12:40:50;;;;;;;5.37;2.47;;;12.00;57.40;;;;;;8414447;28;20332;-70
2022/11/05 12:45:18;;;;;;;5.10;2.03;;;12.30;1.00;;;;;;8396916;28;20187;-70
2022/11/05 12:49:35;;;;;;;11.73;2.40;;;12.10;1.00;;;;;;8413199;28;20269;-69
2022/11/05 12:53:54;;;;;;;6.23;2.10;;;11.90;1.00;;;;;;8412054;28;20185;-70
2022/11/05 12:58:04;;;;;;;6.87;2.30;;;11.80;1.00;;;;;;8395246;28;20208;-68
2022/11/05 13:02:29;;;;;;;6.10;1.97;;;11.80;99.90;;;;;;8417685;28;20220;-70
2022/11/05 13:06:39;;;;;;;6.13;2.17;;;11.70;1.00;;;;;;8416406;28;20233;-70
2022/11/05 13:10:43;;;;;;;5.83;1.97;;;11.70;1.00;;;;;;8401374;28;20271;-70
2022/11/05 13:14:47;;;;;;;4.87;2.00;;;11.50;1.00;;;;;;8399139;28;20184;-70
2022/11/05 13:18:54;;;;;;;6.23;1.87;;;11.50;1.00;;;;;;8416087;28;20589;-71
2022/11/05 13:23:01;;;;;;;10.37;2.70;;;11.20;1.00;;;;;;8419329;28;20170;-71
2022/11/05 13:27:22;;;;;;;4.37;2.17;;;10.90;99.90;;;;;;8396035;28;20589;-70
2022/11/05 13:31:31;;;;;;;8.50;3.63;;;10.70;99.90;;;;;;8418255;28;20182;-70
2022/11/05 13:38:57;;;;;;;15.67;4.67;;;10.60;99.90;;;;;;8401769;28;20267;-70
2022/11/05 13:40:21;;;;;;;8.87;2.67;;;10.60;99.90;;;;;;8418401;28;20222;-70
2022/11/05 13:44:50;;;;;;;7.80;2.60;;;10.60;99.90;;;;;;8395492;28;20190;-69
2022/11/05 13:48:58;;;;;;;7.70;2.20;;;10.70;99.90;;;;;;8419581;28;20179;-69
2022/11/05 13:53:12;;;;;;;5.50;2.37;;;10.70;99.90;;;;;;8399329;28;20180;-69
2022/11/05 13:57:19;;;;;;;7.00;2.40;;;10.80;79.90;;;;;;8417707;28;20358;-69
2022/11/05 14:01:55;;;;;;;6.73;2.90;;;10.80;57.90;;;;;;8418638;28;20178;-70
2022/11/05 14:06:06;;;;;;;4.50;2.00;;;11.00;99.90;;;;;;8417506;28;20191;-70
2022/11/05 14:10:42;;;;;;;5.37;1.70;;;11.20;99.90;;;;;;8418981;28;20179;-70
2022/11/05 14:14:46;;;;;;;7.37;1.77;;;11.30;1.00;;;;;;8366638;28;20202;-68
2022/11/05 14:19:13;;;;;;;10.80;1.60;;;11.20;1.00;;;;;;8398309;28;20207;-69
2022/11/05 14:23:19;;;;;;;5.13;1.90;;;11.10;1.00;;;;;;8399805;28;20179;-70
2022/11/05 14:27:20;;;;;;;6.30;1.57;;;10.90;1.00;;;;;;8417992;28;20187;-68
2022/11/05 14:31:28;;;;;;;5.30;1.33;;;10.80;84.50;;;;;;8419835;28;20199;-72
2022/11/05 14:35:36;;;;;;;6.60;1.70;;;10.70;99.90;;;;;;8389901;28;20184;-70
2022/11/05 14:39:39;;;;;;;5.60;1.63;;;10.60;99.90;;;;;;8419228;28;20437;-69
2022/11/05 14:43:56;;;;;;;4.77;1.83;;;10.40;99.90;;;;;;8400701;28;20184;-70
2022/11/05 14:47:59;;;;;;;9.07;2.50;;;10.30;1.00;;;;;;8411213;28;20185;-70
2022/11/05 14:52:07;;;;;;;5.87;1.70;;;10.10;93.50;;;;;;8395678;28;20213;-70
2022/11/05 14:56:17;;;;;;;8.87;1.90;;;9.90;99.90;;;;;;8397571;28;20186;-70
2022/11/05 15:00:27;;;;;;;7.50;1.40;;;9.60;6.20;;;;;;8412975;28;20208;-71
2022/11/05 15:04:39;;;;;;;3.53;1.43;;;9.40;99.90;;;;;;8393721;28;20199;-71
2022/11/05 15:08:48;;;;;;;6.97;2.13;;;9.10;1.00;;;;;;8413143;28;20177;-71
2022/11/05 15:13:02;;;;;;;6.20;2.20;;;8.90;1.00;;;;;;8396070;28;20182;-71
2022/11/05 15:17:17;;;;;;;2.53;1.40;;;8.70;99.90;;;;;;8395003;28;20208;-71
2022/11/05 15:21:19;;;;;;;1.97;1.23;;;8.40;58.50;;;;;;8397962;28;20544;-71
2022/11/05 15:25:28;;;;;;;2.50;1.57;;;8.20;99.90;;;;;;8414506;28;20192;-70
2022/11/05 15:29:30;;;;;;;4.43;2.03;;;8.00;99.90;;;;;;8396722;28;20211;-71
2022/11/05 15:33:32;;;;;;;5.50;1.50;;;7.70;1.00;;;;;;8396794;28;20203;-71
2022/11/05 15:37:33;;;;;;;3.77;2.07;;;7.50;99.90;;;;;;8395863;28;20291;-71
2022/11/05 15:41:34;;;;;;;9.33;3.53;;;7.40;99.90;;;;;;8397172;28;20191;-71
2022/11/05 15:45:35;;;;;;;6.90;2.00;;;7.30;99.90;;;;;;8395991;28;20184;-71
2022/11/05 15:49:36;;;;;;;7.17;2.70;;;7.10;99.90;;;;;;8412801;28;20187;-71
2022/11/05 15:53:42;;;;;;;11.50;3.60;;;7.00;99.90;;;;;;8414779;28;20275;-71
2022/11/05 15:57:47;;;;;;;9.40;3.17;;;6.90;99.90;;;;;;8396852;28;20214;-70
2022/11/05 16:01:58;;;;;;;4.47;2.53;;;6.80;99.90;;;;;;8389417;28;20531;-71
2022/11/05 16:06:00;;;;;;;6.90;3.10;;;6.70;99.90;;;;;;8409229;28;20191;-71
2022/11/05 16:10:01;;;;;;;8.90;3.20;;;6.60;99.90;;;;;;8395837;28;20273;-70
2022/11/05 16:14:17;;;;;;;3.53;2.17;;;6.50;99.90;;;;;;8396864;28;20261;-69
2022/11/05 16:18:22;;;;;;;7.37;2.60;;;6.30;99.90;;;;;;8396307;28;20204;-70
2022/11/05 16:22:24;;;;;;;5.37;2.57;;;6.20;99.90;;;;;;8415639;28;20182;-71
2022/11/05 16:26:39;;;;;;;4.67;2.70;;;6.20;99.90;;;;;;8396702;28;20185;-71
2022/11/05 16:30:54;;;;;;;5.53;2.70;;;6.00;99.90;;;;;;8413946;28;20177;-70
2022/11/05 16:35:00;;;;;;;6.37;3.30;;;5.90;99.90;;;;;;8417129;28;20200;-70
2022/11/05 16:39:01;;;;;;;9.53;3.50;;;5.80;99.90;;;;;;8401872;28;20296;-70
2022/11/05 16:43:17;;;;;;;7.20;3.30;;;5.80;99.90;;;;;;8426259;28;20172;-70
2022/11/05 16:47:19;;;;;;;13.57;5.23;;;5.80;99.90;;;;;;8426218;28;20184;-70
2022/11/05 16:51:20;;;;;;;23.00;15.27;;;5.70;99.90;;;;;;8407422;28;20190;-70
2022/11/05 16:55:21;;;;;;;18.80;10.73;;;5.90;99.90;;;;;;8408336;28;20263;-69
2022/11/05 16:59:22;;;;;;;12.97;8.10;;;5.80;99.90;;;;;;8425388;28;20214;-70
2022/11/05 17:03:22;;;;;;;10.47;6.00;;;5.60;99.90;;;;;;8424367;28;20204;-71
2022/11/05 17:07:23;;;;;;;8.10;4.53;;;5.50;99.90;;;;;;8426257;28;20188;-70
2022/11/05 17:11:24;;;;;;;11.07;4.83;;;5.40;99.90;;;;;;8406446;28;20184;-71
2022/11/05 17:15:30;;;;;;;8.50;4.93;;;5.30;99.90;;;;;;8404697;28;20184;-71
2022/11/05 17:19:32;;;;;;;7.70;4.40;;;5.30;99.90;;;;;;8408573;28;20280;-70
2022/11/05 17:23:33;;;;;;;9.60;4.57;;;5.10;99.90;;;;;;8407185;28;20181;-70
2022/11/05 17:27:34;;;;;;;7.53;4.83;;;5.10;99.90;;;;;;8408353;28;20177;-70
2022/11/05 17:31:34;;;;;;;9.70;5.00;;;5.00;99.90;;;;;;8407752;28;20188;-70
2022/11/05 17:35:38;;;;;;;13.83;6.93;;;5.00;99.90;;;;;;8425241;28;20393;-70
2022/11/05 17:39:39;;;;;;;19.57;12.77;;;5.20;99.90;;;;;;8406484;28;20210;-69
2022/11/05 17:43:40;;;;;;;17.60;10.23;;;5.50;99.90;;;;;;8419555;28;20181;-71
2022/11/05 17:47:42;;;;;;;20.07;9.70;;;5.30;99.90;;;;;;8402475;28;20187;-70
2022/11/05 17:51:42;;;;;;;13.20;5.97;;;5.20;99.90;;;;;;8401922;28;20181;-70
2022/11/05 17:55:45;;;;;;;16.57;6.93;;;5.20;99.90;;;;;;8419822;28;20198;-70
2022/11/05 17:59:46;;;;;;;19.50;13.53;;;5.30;99.90;;;;;;8420508;28;20204;-70
2022/11/05 18:03:46;;;;;;;31.67;11.07;;;5.30;99.90;;;;;;8402165;28;20193;-70
2022/11/05 18:07:48;;;;;;;17.87;9.07;;;5.40;99.90;;;;;;8418445;28;20195;-70
2022/11/05 18:11:48;;;;;;;15.33;7.53;;;5.40;99.90;;;;;;8402148;28;20177;-70
2022/11/05 18:15:53;;;;;;;18.53;6.83;;;5.40;99.90;;;;;;8420326;28;20259;-71
2022/11/05 18:19:54;;;;;;;13.53;7.60;;;5.40;99.90;;;;;;8419450;28;20553;-71
2022/11/05 18:23:54;;;;;;;17.43;8.83;;;5.20;99.90;;;;;;8420124;28;20464;-71
2022/11/05 18:27:55;;;;;;;15.93;8.77;;;5.20;99.90;;;;;;8401746;28;20231;-71
2022/11/05 18:31:56;;;;;;;14.93;9.70;;;5.20;99.90;;;;;;8418152;28;20184;-71
2022/11/05 18:35:57;;;;;;;29.30;16.13;;;5.10;99.90;;;;;;8420477;28;20490;-70
2022/11/05 18:39:58;;;;;;;26.57;16.37;;;5.20;99.90;;;;;;8421288;28;20223;-70
2022/11/05 18:44:00;;;;;;;23.90;11.97;;;5.30;99.90;;;;;;8400367;28;21057;-70
2022/11/05 18:48:02;;;;;;;16.80;10.43;;;5.20;99.90;;;;;;8421477;28;20573;-72
2022/11/05 18:52:04;;;;;;;19.10;10.30;;;5.20;99.90;;;;;;8397397;28;20188;-71
2022/11/05 18:56:16;;;;;;;20.33;10.20;;;5.20;99.90;;;;;;8399273;28;20211;-71
2022/11/05 19:00:17;;;;;;;17.13;8.90;;;5.00;99.90;;;;;;8413949;28;20247;-71
2022/11/05 19:04:18;;;;;;;13.60;9.90;;;4.90;99.90;;;;;;8396754;28;20605;-72
2022/11/05 19:08:18;;;;;;;23.10;10.63;;;4.80;99.90;;;;;;8397443;28;20274;-71
2022/11/05 19:12:19;;;;;;;17.67;10.83;;;4.80;99.90;;;;;;8415249;28;20277;-71
2022/11/05 19:16:23;;;;;;;25.47;14.37;;;4.70;99.90;;;;;;8413091;28;20172;-71
2022/11/05 19:20:24;;;;;;;20.17;12.87;;;4.70;99.90;;;;;;8397835;28;20208;-71
2022/11/05 19:24:25;;;;;;;31.70;17.10;;;4.60;99.90;;;;;;8400210;28;20191;-71
2022/11/05 19:28:27;;;;;;;27.90;16.50;;;4.60;99.90;;;;;;8418885;28;20191;-71
2022/11/05 19:32:28;;;;;;;23.70;16.17;;;4.70;99.90;;;;;;8415137;28;20185;-72
2022/11/05 19:36:31;;;;;;;23.53;16.37;;;4.60;99.90;;;;;;8411738;28;20207;-71
2022/11/05 19:40:31;;;;;;;24.47;16.67;;;4.60;99.90;;;;;;8411082;28;20200;-71
2022/11/05 19:44:32;;;;;;;27.40;17.43;;;4.50;99.90;;;;;;8396011;28;20196;-72
2022/11/05 19:48:33;;;;;;;22.60;15.13;;;4.40;99.90;;;;;;8397008;28;20265;-71
2022/11/05 19:52:34;;;;;;;25.17;15.47;;;4.30;99.90;;;;;;8394678;28;20237;-72
2022/11/05 19:56:37;;;;;;;23.20;14.43;;;4.20;99.90;;;;;;8388185;28;20214;-71
2022/11/05 20:00:38;;;;;;;20.43;13.07;;;4.10;99.90;;;;;;8413306;28;20369;-72
2022/11/05 20:04:39;;;;;;;28.00;15.77;;;4.10;99.90;;;;;;8395363;28;20379;-72
2022/11/05 20:08:41;;;;;;;19.90;14.37;;;4.00;99.90;;;;;;8395487;28;20565;-71
2022/11/05 20:12:42;;;;;;;21.63;13.87;;;4.00;99.90;;;;;;8409982;28;20195;-71
2022/11/05 20:16:45;;;;;;;23.30;15.10;;;3.90;99.90;;;;;;8395358;28;20255;-71
2022/11/05 20:20:46;;;;;;;25.07;16.17;;;3.80;99.90;;;;;;8415856;28;20303;-72
2022/11/05 20:24:47;;;;;;;25.17;15.40;;;3.80;99.90;;;;;;8398878;28;20176;-70
2022/11/05 20:28:48;;;;;;;20.50;13.73;;;3.70;99.90;;;;;;8396808;28;20261;-71
2022/11/05 20:32:56;;;;;;;21.93;15.50;;;3.70;99.90;;;;;;8398014;28;20206;-71
2022/11/05 20:36:57;;;;;;;22.57;14.20;;;3.60;99.90;;;;;;8416881;28;20268;-71
2022/11/05 20:40:58;;;;;;;22.57;13.93;;;3.50;99.90;;;;;;8416754;28;20212;-70
2022/11/05 20:44:59;;;;;;;20.87;14.40;;;3.50;99.90;;;;;;8406171;28;20186;-71
2022/11/05 20:49:00;;;;;;;18.07;13.50;;;3.40;99.90;;;;;;8397887;28;20232;-71
2022/11/05 20:53:01;;;;;;;19.73;12.90;;;3.40;99.90;;;;;;8415134;28;20178;-70
2022/11/05 20:57:02;;;;;;;19.67;12.20;;;3.40;99.90;;;;;;8398385;28;20206;-71
2022/11/05 21:01:04;;;;;;;20.17;12.83;;;3.40;99.90;;;;;;8396339;28;20179;-71
2022/11/05 21:05:06;;;;;;;21.33;12.90;;;3.40;99.90;;;;;;8418921;28;20196;-71
2022/11/05 21:09:07;;;;;;;26.43;13.97;;;3.40;99.90;;;;;;8410772;28;20531;-72
2022/11/05 21:13:08;;;;;;;25.23;14.73;;;3.40;99.90;;;;;;8392892;28;20185;-71
2022/11/05 21:17:11;;;;;;;24.77;15.10;;;3.40;99.90;;;;;;8387716;28;20209;-71
2022/11/05 21:21:15;;;;;;;24.50;15.67;;;3.40;99.90;;;;;;8413959;28;20211;-71
2022/11/05 21:25:16;;;;;;;26.20;15.67;;;3.40;99.90;;;;;;8406941;28;20189;-70
2022/11/05 21:29:18;;;;;;;27.10;16.37;;;3.50;99.90;;;;;;8399003;28;20223;-71
2022/11/05 21:33:19;;;;;;;27.93;16.90;;;3.60;99.90;;;;;;8398632;28;20198;-71
2022/11/05 21:37:20;;;;;;;22.50;15.37;;;3.70;99.90;;;;;;8398084;28;20221;-71
2022/11/05 21:41:20;;;;;;;22.47;15.07;;;3.70;99.90;;;;;;8399287;28;20187;-72
2022/11/05 21:45:21;;;;;;;22.60;14.70;;;3.70;99.90;;;;;;8401163;28;20181;-72
2022/11/05 21:49:23;;;;;;;23.30;14.03;;;3.70;99.90;;;;;;8420669;28;20189;-71
2022/11/05 22:02:21;;;;;;;19.73;13.27;;;3.60;99.90;;;;;;8420098;28;20193;-71
2022/11/05 22:06:21;;;;;;;16.70;11.63;;;3.40;99.90;;;;;;8403419;28;20432;-71